sensor_id;sensor_type;location;lat;lon;timestamp;pressure;altitude;pressure_sealevel;temperature;humidity
59650;BME280;46162;57.568;25.814;2024-01-25T00:01:16;98510.59;;;0.66;100.00
59650;BME280;46162;57.568;25.814;2024-01-25T00:03:45;98507.13;;;0.66;100.00
59650;BME280;46162;57.568;25.814;2024-01-25T00:06:13;98518.44;;;0.68;100.00
59650;BME280;46162;57.568;25.814;2024-01-25T00:08:42;98518.75;;;0.64;100.00
59650;BME280;46162;57.568;25.814;2024-01-25T00:11:10;98516.50;;;0.70;100.00
59650;BME280;46162;57.568;25.814;2024-01-25T00:13:39;98512.44;;;0.66;100.00
59650;BME280;46162;57.568;25.814;2024-01-25T00:16:08;98516.75;;;0.67;100.00
59650;BME280;46162;57.568;25.814;2024-01-25T00:18:38;98526.00;;;0.62;100.00
59650;BME280;46162;57.568;25.814;2024-01-25T00:21:07;98531.59;;;0.59;100.00
59650;BME280;46162;57.568;25.814;2024-01-25T00:23:36;98530.75;;;0.59;100.00
59650;BME280;46162;57.568;25.814;2024-01-25T00:26:04;98527.13;;;0.60;100.00
59650;BME280;46162;57.568;25.814;2024-01-25T00:28:33;98534.81;;;0.63;100.00
59650;BME280;46162;57.568;25.814;2024-01-25T00:31:02;98529.91;;;0.58;100.00
59650;BME280;46162;57.568;25.814;2024-01-25T00:33:30;98537.03;;;0.68;100.00
59650;BME280;46162;57.568;25.814;2024-01-25T00:36:01;98535.50;;;0.65;100.00
59650;BME280;46162;57.568;25.814;2024-01-25T00:38:30;98541.78;;;0.64;100.00
59650;BME280;46162;57.568;25.814;2024-01-25T00:41:00;98542.34;;;0.68;100.00
59650;BME280;46162;57.568;25.814;2024-01-25T00:43:29;98536.03;;;0.69;100.00
59650;BME280;46162;57.568;25.814;2024-01-25T00:45:58;98551.44;;;0.65;100.00
59650;BME280;46162;57.568;25.814;2024-01-25T00:48:28;98545.56;;;0.61;100.00
59650;BME280;46162;57.568;25.814;2024-01-25T00:50:57;98551.72;;;0.62;100.00
59650;BME280;46162;57.568;25.814;2024-01-25T00:53:28;98551.16;;;0.58;100.00
59650;BME280;46162;57.568;25.814;2024-01-25T00:56:00;98548.06;;;0.63;100.00
59650;BME280;46162;57.568;25.814;2024-01-25T00:58:29;98548.38;;;0.60;100.00
59650;BME280;46162;57.568;25.814;2024-01-25T01:00:58;98552.56;;;0.62;100.00
59650;BME280;46162;57.568;25.814;2024-01-25T01:03:28;98549.19;;;0.60;100.00
59650;BME280;46162;57.568;25.814;2024-01-25T01:05:57;98550.03;;;0.61;100.00
59650;BME280;46162;57.568;25.814;2024-01-25T01:08:29;98550.72;;;0.63;100.00
59650;BME280;46162;57.568;25.814;2024-01-25T01:10:58;98557.72;;;0.64;100.00
59650;BME280;46162;57.568;25.814;2024-01-25T01:13:26;98555.22;;;0.62;100.00
59650;BME280;46162;57.568;25.814;2024-01-25T01:15:55;98558.81;;;0.61;100.00
59650;BME280;46162;57.568;25.814;2024-01-25T01:18:24;98564.56;;;0.67;100.00
59650;BME280;46162;57.568;25.814;2024-01-25T01:20:52;98553.53;;;0.61;100.00
59650;BME280;46162;57.568;25.814;2024-01-25T01:23:21;98552.28;;;0.66;100.00
59650;BME280;46162;57.568;25.814;2024-01-25T01:25:51;98562.75;;;0.67;100.00
59650;BME280;46162;57.568;25.814;2024-01-25T01:28:20;98560.53;;;0.62;100.00
59650;BME280;46162;57.568;25.814;2024-01-25T01:30:49;98562.06;;;0.65;100.00
59650;BME280;46162;57.568;25.814;2024-01-25T01:33:17;98563.72;;;0.66;100.00
59650;BME280;46162;57.568;25.814;2024-01-25T01:35:46;98569.03;;;0.66;100.00
59650;BME280;46162;57.568;25.814;2024-01-25T01:38:15;98562.34;;;0.62;100.00
59650;BME280;46162;57.568;25.814;2024-01-25T01:40:44;98572.09;;;0.61;100.00
59650;BME280;46162;57.568;25.814;2024-01-25T01:43:20;98565.41;;;0.67;100.00
59650;BME280;46162;57.568;25.814;2024-01-25T01:45:50;98569.88;;;0.67;100.00
59650;BME280;46162;57.568;25.814;2024-01-25T01:48:19;98572.53;;;0.67;100.00
59650;BME280;46162;57.568;25.814;2024-01-25T01:50:48;98574.50;;;0.64;100.00
59650;BME280;46162;57.568;25.814;2024-01-25T01:53:17;98577.41;;;0.61;100.00
59650;BME280;46162;57.568;25.814;2024-01-25T01:55:46;98569.31;;;0.63;100.00
59650;BME280;46162;57.568;25.814;2024-01-25T01:58:15;98578.28;;;0.62;100.00
59650;BME280;46162;57.568;25.814;2024-01-25T02:00:46;98574.09;;;0.59;100.00
59650;BME280;46162;57.568;25.814;2024-01-25T02:03:15;98579.81;;;0.64;100.00
59650;BME280;46162;57.568;25.814;2024-01-25T02:05:44;98582.47;;;0.64;100.00
59650;BME280;46162;57.568;25.814;2024-01-25T02:08:14;98579.53;;;0.68;100.00
59650;BME280;46162;57.568;25.814;2024-01-25T02:10:43;98586.66;;;0.77;100.00
59650;BME280;46162;57.568;25.814;2024-01-25T02:13:11;98583.13;;;0.86;100.00
59650;BME280;46162;57.568;25.814;2024-01-25T02:15:40;98588.59;;;0.94;100.00
59650;BME280;46162;57.568;25.814;2024-01-25T02:18:11;98588.63;;;0.75;100.00
59650;BME280;46162;57.568;25.814;2024-01-25T02:20:39;98587.91;;;0.73;100.00
59650;BME280;46162;57.568;25.814;2024-01-25T02:23:10;98581.75;;;0.72;100.00
59650;BME280;46162;57.568;25.814;2024-01-25T02:25:38;98588.72;;;0.83;100.00
59650;BME280;46162;57.568;25.814;2024-01-25T02:28:07;98589.03;;;0.80;100.00
59650;BME280;46162;57.568;25.814;2024-01-25T02:30:36;98600.34;;;0.82;100.00
59650;BME280;46162;57.568;25.814;2024-01-25T02:33:04;98597.81;;;0.80;100.00
59650;BME280;46162;57.568;25.814;2024-01-25T02:35:33;98599.78;;;0.88;100.00
59650;BME280;46162;57.568;25.814;2024-01-25T02:38:02;98597.81;;;0.90;100.00
59650;BME280;46162;57.568;25.814;2024-01-25T02:40:32;98604.53;;;0.94;100.00
59650;BME280;46162;57.568;25.814;2024-01-25T02:43:01;98611.78;;;1.02;100.00
59650;BME280;46162;57.568;25.814;2024-01-25T02:45:29;98599.78;;;0.88;100.00
59650;BME280;46162;57.568;25.814;2024-01-25T02:47:58;98605.09;;;0.88;100.00
59650;BME280;46162;57.568;25.814;2024-01-25T02:50:29;98618.09;;;0.81;100.00
59650;BME280;46162;57.568;25.814;2024-01-25T02:52:58;98613.88;;;0.79;100.00
59650;BME280;46162;57.568;25.814;2024-01-25T02:55:26;98619.06;;;0.71;100.00
59650;BME280;46162;57.568;25.814;2024-01-25T02:57:57;98624.97;;;0.74;100.00
59650;BME280;46162;57.568;25.814;2024-01-25T03:00:25;98627.59;;;0.84;100.00
59650;BME280;46162;57.568;25.814;2024-01-25T03:02:54;98628.44;;;0.75;100.00
59650;BME280;46162;57.568;25.814;2024-01-25T03:05:23;98631.38;;;0.81;100.00
59650;BME280;46162;57.568;25.814;2024-01-25T03:07:51;98638.22;;;0.84;100.00
59650;BME280;46162;57.568;25.814;2024-01-25T03:10:20;98633.91;;;0.83;100.00
59650;BME280;46162;57.568;25.814;2024-01-25T03:12:49;98634.59;;;0.85;100.00
59650;BME280;46162;57.568;25.814;2024-01-25T03:15:19;98648.72;;;0.95;100.00
59650;BME280;46162;57.568;25.814;2024-01-25T03:17:48;98644.09;;;0.97;100.00
59650;BME280;46162;57.568;25.814;2024-01-25T03:20:16;98636.25;;;0.96;100.00
59650;BME280;46162;57.568;25.814;2024-01-25T03:22:45;98638.09;;;0.76;100.00
59650;BME280;46162;57.568;25.814;2024-01-25T03:25:14;98638.66;;;0.70;100.00
59650;BME280;46162;57.568;25.814;2024-01-25T03:27:43;98650.66;;;0.93;100.00
59650;BME280;46162;57.568;25.814;2024-01-25T03:30:12;98646.47;;;0.81;100.00
59650;BME280;46162;57.568;25.814;2024-01-25T03:32:42;98643.97;;;0.79;100.00
59650;BME280;46162;57.568;25.814;2024-01-25T03:35:11;98647.47;;;0.90;100.00
59650;BME280;46162;57.568;25.814;2024-01-25T03:37:40;98644.53;;;0.83;100.00
59650;BME280;46162;57.568;25.814;2024-01-25T03:40:09;98646.22;;;0.64;100.00
59650;BME280;46162;57.568;25.814;2024-01-25T03:42:38;98644.66;;;0.62;100.00
59650;BME280;46162;57.568;25.814;2024-01-25T03:45:11;98646.91;;;0.47;100.00
59650;BME280;46162;57.568;25.814;2024-01-25T03:47:39;98648.44;;;0.50;100.00
59650;BME280;46162;57.568;25.814;2024-01-25T03:50:10;98649.28;;;0.60;100.00
59650;BME280;46162;57.568;25.814;2024-01-25T03:52:38;98649.53;;;0.67;100.00
59650;BME280;46162;57.568;25.814;2024-01-25T03:55:07;98657.66;;;0.75;100.00
59650;BME280;46162;57.568;25.814;2024-01-25T03:57:36;98662.41;;;0.81;100.00
59650;BME280;46162;57.568;25.814;2024-01-25T04:00:08;98663.53;;;0.88;100.00
59650;BME280;46162;57.568;25.814;2024-01-25T04:02:37;98664.25;;;0.90;100.00
59650;BME280;46162;57.568;25.814;2024-01-25T04:05:06;98669.69;;;0.98;100.00
59650;BME280;46162;57.568;25.814;2024-01-25T04:07:37;98672.22;;;1.00;100.00
59650;BME280;46162;57.568;25.814;2024-01-25T04:10:06;98675.97;;;0.78;100.00
59650;BME280;46162;57.568;25.814;2024-01-25T04:12:35;98667.88;;;0.89;100.00
59650;BME280;46162;57.568;25.814;2024-01-25T04:15:05;98673.31;;;0.97;100.00
59650;BME280;46162;57.568;25.814;2024-01-25T04:17:33;98668.84;;;0.88;100.00
59650;BME280;46162;57.568;25.814;2024-01-25T04:20:02;98663.94;;;0.74;100.00
59650;BME280;46162;57.568;25.814;2024-01-25T04:22:31;98669.13;;;0.85;100.00
59650;BME280;46162;57.568;25.814;2024-01-25T04:25:01;98665.34;;;0.78;100.00
59650;BME280;46162;57.568;25.814;2024-01-25T04:27:30;98672.19;;;0.71;100.00
59650;BME280;46162;57.568;25.814;2024-01-25T04:29:59;98671.09;;;0.83;100.00
59650;BME280;46162;57.568;25.814;2024-01-25T04:32:27;98673.75;;;0.93;100.00
59650;BME280;46162;57.568;25.814;2024-01-25T04:34:56;98676.94;;;0.96;100.00
59650;BME280;46162;57.568;25.814;2024-01-25T04:37:25;98671.63;;;0.96;100.00
59650;BME280;46162;57.568;25.814;2024-01-25T04:39:54;98678.66;;;0.97;100.00
59650;BME280;46162;57.568;25.814;2024-01-25T04:42:24;98678.22;;;0.92;100.00
59650;BME280;46162;57.568;25.814;2024-01-25T04:44:52;98673.03;;;0.91;100.00
59650;BME280;46162;57.568;25.814;2024-01-25T04:47:21;98674.88;;;0.90;100.00
59650;BME280;46162;57.568;25.814;2024-01-25T04:49:50;98676.41;;;0.83;100.00
59650;BME280;46162;57.568;25.814;2024-01-25T04:52:19;98673.88;;;0.81;100.00
59650;BME280;46162;57.568;25.814;2024-01-25T04:54:47;98680.59;;;0.95;100.00
59650;BME280;46162;57.568;25.814;2024-01-25T04:57:16;98682.00;;;0.99;100.00
59650;BME280;46162;57.568;25.814;2024-01-25T04:59:46;98689.41;;;1.05;100.00
59650;BME280;46162;57.568;25.814;2024-01-25T05:02:15;98691.34;;;1.03;100.00
59650;BME280;46162;57.568;25.814;2024-01-25T05:04:43;98692.75;;;1.07;100.00
59650;BME280;46162;57.568;25.814;2024-01-25T05:07:12;98691.34;;;1.13;100.00
59650;BME280;46162;57.568;25.814;2024-01-25T05:09:41;98688.84;;;1.12;100.00
59650;BME280;46162;57.568;25.814;2024-01-25T05:12:10;98692.06;;;1.15;100.00
59650;BME280;46162;57.568;25.814;2024-01-25T05:14:38;98695.72;;;1.14;100.00
59650;BME280;46162;57.568;25.814;2024-01-25T05:17:08;98691.06;;;1.16;100.00
59650;BME280;46162;57.568;25.814;2024-01-25T05:19:37;98693.47;;;1.19;100.00
59650;BME280;46162;57.568;25.814;2024-01-25T05:22:06;98683.66;;;1.00;100.00
59650;BME280;46162;57.568;25.814;2024-01-25T05:24:35;98678.34;;;0.81;100.00
59650;BME280;46162;57.568;25.814;2024-01-25T05:27:04;98685.38;;;0.92;100.00
59650;BME280;46162;57.568;25.814;2024-01-25T05:29:32;98682.28;;;0.77;100.00
59650;BME280;46162;57.568;25.814;2024-01-25T05:32:01;98683.94;;;0.78;100.00
59650;BME280;46162;57.568;25.814;2024-01-25T05:34:31;98682.69;;;0.82;100.00
59650;BME280;46162;57.568;25.814;2024-01-25T05:37:01;98682.13;;;0.88;100.00
59650;BME280;46162;57.568;25.814;2024-01-25T05:39:29;98681.16;;;0.70;100.00
59650;BME280;46162;57.568;25.814;2024-01-25T05:41:59;98686.19;;;0.73;100.00
59650;BME280;46162;57.568;25.814;2024-01-25T05:44:27;98687.84;;;0.74;100.00
59650;BME280;46162;57.568;25.814;2024-01-25T05:46:58;98691.50;;;0.73;100.00
59650;BME280;46162;57.568;25.814;2024-01-25T05:49:27;98680.03;;;0.62;100.00
59650;BME280;46162;57.568;25.814;2024-01-25T05:51:57;98689.22;;;0.58;100.00
59650;BME280;46162;57.568;25.814;2024-01-25T05:54:26;98688.09;;;0.51;100.00
59650;BME280;46162;57.568;25.814;2024-01-25T05:56:54;98696.50;;;0.56;100.00
59650;BME280;46162;57.568;25.814;2024-01-25T05:59:23;98697.47;;;0.55;100.00
59650;BME280;46162;57.568;25.814;2024-01-25T06:01:53;98708.22;;;0.54;100.00
59650;BME280;46162;57.568;25.814;2024-01-25T06:04:21;98711.47;;;0.57;100.00
59650;BME280;46162;57.568;25.814;2024-01-25T06:06:50;98712.72;;;0.53;100.00
59650;BME280;46162;57.568;25.814;2024-01-25T06:09:20;98717.47;;;0.50;100.00
59650;BME280;46162;57.568;25.814;2024-01-25T06:11:49;98721.91;;;0.49;100.00
59650;BME280;46162;57.568;25.814;2024-01-25T06:14:18;98716.34;;;0.52;100.00
59650;BME280;46162;57.568;25.814;2024-01-25T06:16:46;98721.50;;;0.54;100.00
59650;BME280;46162;57.568;25.814;2024-01-25T06:19:16;98729.78;;;0.60;100.00
59650;BME280;46162;57.568;25.814;2024-01-25T06:21:45;98732.97;;;0.64;100.00
59650;BME280;46162;57.568;25.814;2024-01-25T06:24:13;98745.03;;;0.68;100.00
59650;BME280;46162;57.568;25.814;2024-01-25T06:26:43;98745.72;;;0.70;100.00
59650;BME280;46162;57.568;25.814;2024-01-25T06:29:12;98749.94;;;0.73;100.00
59650;BME280;46162;57.568;25.814;2024-01-25T06:31:42;98750.47;;;0.76;100.00
59650;BME280;46162;57.568;25.814;2024-01-25T06:34:11;98758.75;;;0.83;100.00
59650;BME280;46162;57.568;25.814;2024-01-25T06:36:40;98748.56;;;0.88;100.00
59650;BME280;46162;57.568;25.814;2024-01-25T06:39:09;98759.47;;;0.95;100.00
59650;BME280;46162;57.568;25.814;2024-01-25T06:41:37;98761.97;;;0.96;100.00
59650;BME280;46162;57.568;25.814;2024-01-25T06:44:07;98760.03;;;0.98;100.00
59650;BME280;46162;57.568;25.814;2024-01-25T06:46:36;98761.56;;;0.91;100.00
59650;BME280;46162;57.568;25.814;2024-01-25T06:49:05;98765.63;;;0.95;100.00
59650;BME280;46162;57.568;25.814;2024-01-25T06:51:34;98762.28;;;1.03;100.00
59650;BME280;46162;57.568;25.814;2024-01-25T06:54:03;98769.81;;;0.88;100.00
59650;BME280;46162;57.568;25.814;2024-01-25T06:56:31;98774.00;;;0.91;100.00
59650;BME280;46162;57.568;25.814;2024-01-25T06:59:01;98778.06;;;0.85;100.00
59650;BME280;46162;57.568;25.814;2024-01-25T07:01:32;98783.22;;;0.96;100.00
59650;BME280;46162;57.568;25.814;2024-01-25T07:04:02;98788.53;;;0.96;100.00
59650;BME280;46162;57.568;25.814;2024-01-25T07:06:32;98796.41;;;1.07;100.00
59650;BME280;46162;57.568;25.814;2024-01-25T07:09:00;98800.31;;;1.13;100.00
59650;BME280;46162;57.568;25.814;2024-01-25T07:11:29;98793.47;;;1.11;100.00
59650;BME280;46162;57.568;25.814;2024-01-25T07:13:58;98798.78;;;1.11;100.00
59650;BME280;46162;57.568;25.814;2024-01-25T07:16:26;98801.16;;;1.14;100.00
59650;BME280;46162;57.568;25.814;2024-01-25T07:18:59;98801.72;;;1.07;100.00
59650;BME280;46162;57.568;25.814;2024-01-25T07:21:28;98808.47;;;1.12;100.00
59650;BME280;46162;57.568;25.814;2024-01-25T07:24:00;98804.25;;;1.09;100.00
59650;BME280;46162;57.568;25.814;2024-01-25T07:26:29;98814.19;;;1.17;100.00
59650;BME280;46162;57.568;25.814;2024-01-25T07:28:58;98816.00;;;1.06;100.00
59650;BME280;46162;57.568;25.814;2024-01-25T07:31:27;98818.19;;;1.01;100.00
59650;BME280;46162;57.568;25.814;2024-01-25T07:33:57;98816.25;;;1.03;100.00
59650;BME280;46162;57.568;25.814;2024-01-25T07:36:26;98824.94;;;1.05;100.00
59650;BME280;46162;57.568;25.814;2024-01-25T07:38:55;98823.81;;;0.98;100.00
59650;BME280;46162;57.568;25.814;2024-01-25T07:41:23;98843.13;;;1.00;100.00
59650;BME280;46162;57.568;25.814;2024-01-25T07:43:54;98848.13;;;0.94;100.00
59650;BME280;46162;57.568;25.814;2024-01-25T07:46:22;98856.78;;;0.86;100.00
59650;BME280;46162;57.568;25.814;2024-01-25T07:48:52;98872.72;;;0.86;100.00
59650;BME280;46162;57.568;25.814;2024-01-25T07:51:22;98874.53;;;0.85;100.00
59650;BME280;46162;57.568;25.814;2024-01-25T07:53:56;98884.84;;;0.79;100.00
59650;BME280;46162;57.568;25.814;2024-01-25T07:56:25;98895.03;;;0.74;100.00
59650;BME280;46162;57.568;25.814;2024-01-25T07:58:54;98912.06;;;0.71;100.00
59650;BME280;46162;57.568;25.814;2024-01-25T08:01:22;98917.22;;;0.63;100.00
59650;BME280;46162;57.568;25.814;2024-01-25T08:03:51;98925.50;;;0.70;100.00
59650;BME280;46162;57.568;25.814;2024-01-25T08:06:22;98939.84;;;0.57;100.00
59650;BME280;46162;57.568;25.814;2024-01-25T08:08:51;98941.41;;;0.60;100.00
59650;BME280;46162;57.568;25.814;2024-01-25T08:11:20;98955.56;;;0.49;100.00
59650;BME280;46162;57.568;25.814;2024-01-25T08:13:48;98955.25;;;0.42;100.00
59650;BME280;46162;57.568;25.814;2024-01-25T08:16:17;98961.28;;;0.45;100.00
59650;BME280;46162;57.568;25.814;2024-01-25T08:18:48;98977.16;;;0.35;100.00
59650;BME280;46162;57.568;25.814;2024-01-25T08:21:18;98983.16;;;0.37;100.00
59650;BME280;46162;57.568;25.814;2024-01-25T08:23:48;98982.50;;;0.24;100.00
59650;BME280;46162;57.568;25.814;2024-01-25T08:26:17;98990.38;;;0.14;100.00
59650;BME280;46162;57.568;25.814;2024-01-25T08:28:46;98996.41;;;0.16;100.00
59650;BME280;46162;57.568;25.814;2024-01-25T08:31:16;99010.59;;;0.05;100.00
59650;BME280;46162;57.568;25.814;2024-01-25T08:33:45;99020.47;;;0.03;100.00
59650;BME280;46162;57.568;25.814;2024-01-25T08:36:31;99014.94;;;-0.05;100.00
59650;BME280;46162;57.568;25.814;2024-01-25T08:39:00;99023.38;;;0.00;100.00
59650;BME280;46162;57.568;25.814;2024-01-25T08:41:29;99026.53;;;-0.06;100.00
59650;BME280;46162;57.568;25.814;2024-01-25T08:43:59;99038.94;;;-0.07;100.00
59650;BME280;46162;57.568;25.814;2024-01-25T08:46:28;99043.53;;;-0.09;100.00
59650;BME280;46162;57.568;25.814;2024-01-25T08:48:57;99050.19;;;-0.14;100.00
59650;BME280;46162;57.568;25.814;2024-01-25T08:51:26;99064.88;;;-0.10;100.00
59650;BME280;46162;57.568;25.814;2024-01-25T08:53:56;99067.41;;;-0.20;100.00
59650;BME280;46162;57.568;25.814;2024-01-25T08:56:25;99074.22;;;-0.27;100.00
59650;BME280;46162;57.568;25.814;2024-01-25T08:58:57;99090.69;;;-0.24;100.00
59650;BME280;46162;57.568;25.814;2024-01-25T09:01:25;99087.56;;;-0.29;100.00
59650;BME280;46162;57.568;25.814;2024-01-25T09:03:54;99097.22;;;-0.28;100.00
59650;BME280;46162;57.568;25.814;2024-01-25T09:06:29;99109.38;;;-0.25;100.00
59650;BME280;46162;57.568;25.814;2024-01-25T09:09:00;99124.97;;;-0.32;100.00
59650;BME280;46162;57.568;25.814;2024-01-25T09:11:31;99128.31;;;-0.30;100.00
59650;BME280;46162;57.568;25.814;2024-01-25T09:13:59;99133.13;;;-0.35;100.00
59650;BME280;46162;57.568;25.814;2024-01-25T09:16:28;99135.78;;;-0.35;100.00
59650;BME280;46162;57.568;25.814;2024-01-25T09:18:57;99151.22;;;-0.29;100.00
59650;BME280;46162;57.568;25.814;2024-01-25T09:21:27;99154.47;;;-0.36;100.00
59650;BME280;46162;57.568;25.814;2024-01-25T09:23:56;99153.66;;;-0.37;100.00
59650;BME280;46162;57.568;25.814;2024-01-25T09:26:26;99163.75;;;-0.31;100.00
59650;BME280;46162;57.568;25.814;2024-01-25T09:28:55;99176.63;;;-0.37;100.00
59650;BME280;46162;57.568;25.814;2024-01-25T09:31:23;99177.50;;;-0.37;100.00
59650;BME280;46162;57.568;25.814;2024-01-25T09:33:52;99186.16;;;-0.35;100.00
59650;BME280;46162;57.568;25.814;2024-01-25T09:36:21;99183.78;;;-0.27;100.00
59650;BME280;46162;57.568;25.814;2024-01-25T09:38:50;99191.22;;;-0.43;100.00
59650;BME280;46162;57.568;25.814;2024-01-25T09:41:19;99205.84;;;-0.26;100.00
59650;BME280;46162;57.568;25.814;2024-01-25T09:43:52;99206.06;;;-0.40;100.00
59650;BME280;46162;57.568;25.814;2024-01-25T09:46:22;99210.53;;;-0.41;100.00
59650;BME280;46162;57.568;25.814;2024-01-25T09:48:51;99212.94;;;-0.38;100.00
59650;BME280;46162;57.568;25.814;2024-01-25T09:51:22;99219.81;;;-0.35;100.00
59650;BME280;46162;57.568;25.814;2024-01-25T09:53:54;99227.63;;;-0.45;100.00
59650;BME280;46162;57.568;25.814;2024-01-25T09:56:23;99234.78;;;-0.34;100.00
59650;BME280;46162;57.568;25.814;2024-01-25T09:58:54;99235.72;;;-0.35;100.00
59650;BME280;46162;57.568;25.814;2024-01-25T10:01:24;99231.63;;;-0.39;100.00
59650;BME280;46162;57.568;25.814;2024-01-25T10:03:53;99240.06;;;-0.34;100.00
59650;BME280;46162;57.568;25.814;2024-01-25T10:06:23;99242.34;;;-0.41;100.00
59650;BME280;46162;57.568;25.814;2024-01-25T10:08:52;99247.16;;;-0.35;100.00
59650;BME280;46162;57.568;25.814;2024-01-25T10:11:22;99253.19;;;-0.44;100.00
59650;BME280;46162;57.568;25.814;2024-01-25T10:13:51;99255.34;;;-0.38;100.00
59650;BME280;46162;57.568;25.814;2024-01-25T10:16:22;99261.00;;;-0.43;100.00
59650;BME280;46162;57.568;25.814;2024-01-25T10:18:51;99262.09;;;-0.45;100.00
59650;BME280;46162;57.568;25.814;2024-01-25T10:21:21;99266.22;;;-0.30;100.00
59650;BME280;46162;57.568;25.814;2024-01-25T10:23:50;99276.69;;;-0.39;100.00
59650;BME280;46162;57.568;25.814;2024-01-25T10:26:21;99287.66;;;-0.44;100.00
59650;BME280;46162;57.568;25.814;2024-01-25T10:28:51;99286.78;;;-0.45;100.00
59650;BME280;46162;57.568;25.814;2024-01-25T10:31:30;99292.31;;;-0.48;100.00
59650;BME280;46162;57.568;25.814;2024-01-25T10:33:59;99298.75;;;-0.39;100.00
59650;BME280;46162;57.568;25.814;2024-01-25T10:36:29;99296.44;;;-0.44;100.00
59650;BME280;46162;57.568;25.814;2024-01-25T10:39:00;99301.03;;;-0.46;100.00
59650;BME280;46162;57.568;25.814;2024-01-25T10:41:32;99307.91;;;-0.43;100.00
59650;BME280;46162;57.568;25.814;2024-01-25T10:44:03;99322.56;;;-0.50;100.00
59650;BME280;46162;57.568;25.814;2024-01-25T10:46:36;99323.31;;;-0.48;100.00
59650;BME280;46162;57.568;25.814;2024-01-25T10:49:07;99327.44;;;-0.44;100.00
59650;BME280;46162;57.568;25.814;2024-01-25T10:51:37;99337.88;;;-0.54;100.00
59650;BME280;46162;57.568;25.814;2024-01-25T10:54:07;99341.13;;;-0.50;100.00
59650;BME280;46162;57.568;25.814;2024-01-25T10:56:38;99345.94;;;-0.55;100.00
59650;BME280;46162;57.568;25.814;2024-01-25T10:59:10;99349.72;;;-0.47;100.00
59650;BME280;46162;57.568;25.814;2024-01-25T11:01:44;99352.72;;;-0.51;100.00
59650;BME280;46162;57.568;25.814;2024-01-25T11:04:15;99354.16;;;-0.47;100.00
59650;BME280;46162;57.568;25.814;2024-01-25T11:06:46;99352.47;;;-0.48;100.00
59650;BME280;46162;57.568;25.814;2024-01-25T11:09:17;99361.59;;;-0.52;100.00
59650;BME280;46162;57.568;25.814;2024-01-25T11:11:47;99362.56;;;-0.53;100.00
59650;BME280;46162;57.568;25.814;2024-01-25T11:14:19;99367.63;;;-0.50;100.00
59650;BME280;46162;57.568;25.814;2024-01-25T11:16:50;99381.75;;;-0.50;100.00
59650;BME280;46162;57.568;25.814;2024-01-25T11:19:20;99375.94;;;-0.55;100.00
59650;BME280;46162;57.568;25.814;2024-01-25T11:21:51;99386.34;;;-0.52;100.00
59650;BME280;46162;57.568;25.814;2024-01-25T11:24:21;99388.75;;;-0.49;100.00
59650;BME280;46162;57.568;25.814;2024-01-25T11:26:50;99393.81;;;-0.46;100.00
59650;BME280;46162;57.568;25.814;2024-01-25T11:29:20;99393.66;;;-0.55;100.00
59650;BME280;46162;57.568;25.814;2024-01-25T11:31:51;99403.31;;;-0.54;100.00
59650;BME280;46162;57.568;25.814;2024-01-25T11:34:22;99405.59;;;-0.50;100.00
59650;BME280;46162;57.568;25.814;2024-01-25T11:36:51;99416.09;;;-0.48;100.00
59650;BME280;46162;57.568;25.814;2024-01-25T11:39:20;99414.44;;;-0.49;100.00
59650;BME280;46162;57.568;25.814;2024-01-25T11:41:51;99427.44;;;-0.46;100.00
59650;BME280;46162;57.568;25.814;2024-01-25T11:44:20;99425.38;;;-0.54;100.00
59650;BME280;46162;57.568;25.814;2024-01-25T11:46:55;99432.13;;;-0.50;100.00
59650;BME280;46162;57.568;25.814;2024-01-25T11:49:24;99441.53;;;-0.46;100.00
59650;BME280;46162;57.568;25.814;2024-01-25T11:51:53;99451.03;;;-0.54;100.00
59650;BME280;46162;57.568;25.814;2024-01-25T11:54:22;99449.00;;;-0.51;100.00
59650;BME280;46162;57.568;25.814;2024-01-25T11:56:51;99458.13;;;-0.55;100.00
59650;BME280;46162;57.568;25.814;2024-01-25T11:59:20;99458.94;;;-0.41;100.00
59650;BME280;46162;57.568;25.814;2024-01-25T12:01:49;99459.25;;;-0.46;100.00
59650;BME280;46162;57.568;25.814;2024-01-25T12:04:19;99466.56;;;-0.50;100.00
59650;BME280;46162;57.568;25.814;2024-01-25T12:06:48;99475.59;;;-0.52;100.00
59650;BME280;46162;57.568;25.814;2024-01-25T12:09:17;99474.16;;;-0.56;100.00
59650;BME280;46162;57.568;25.814;2024-01-25T12:11:49;99477.41;;;-0.53;100.00
59650;BME280;46162;57.568;25.814;2024-01-25T12:14:19;99486.22;;;-0.52;100.00
59650;BME280;46162;57.568;25.814;2024-01-25T12:16:47;99484.72;;;-0.44;100.00
59650;BME280;46162;57.568;25.814;2024-01-25T12:19:16;99489.50;;;-0.49;100.00
59650;BME280;46162;57.568;25.814;2024-01-25T12:21:47;99493.97;;;-0.49;100.00
59650;BME280;46162;57.568;25.814;2024-01-25T12:24:16;99497.47;;;-0.49;100.00
59650;BME280;46162;57.568;25.814;2024-01-25T12:26:45;99493.97;;;-0.49;100.00
59650;BME280;46162;57.568;25.814;2024-01-25T12:29:15;99503.84;;;-0.51;100.00
59650;BME280;46162;57.568;25.814;2024-01-25T12:31:45;99516.13;;;-0.50;100.00
59650;BME280;46162;57.568;25.814;2024-01-25T12:34:14;99520.69;;;-0.52;100.00
59650;BME280;46162;57.568;25.814;2024-01-25T12:36:44;99527.38;;;-0.59;100.00
59650;BME280;46162;57.568;25.814;2024-01-25T12:39:14;99525.78;;;-0.62;100.00
59650;BME280;46162;57.568;25.814;2024-01-25T12:41:46;99535.22;;;-0.58;100.00
59650;BME280;46162;57.568;25.814;2024-01-25T12:44:16;99535.44;;;-0.61;100.00
59650;BME280;46162;57.568;25.814;2024-01-25T12:46:45;99541.69;;;-0.62;100.00
59650;BME280;46162;57.568;25.814;2024-01-25T12:49:14;99553.59;;;-0.68;100.00
59650;BME280;46162;57.568;25.814;2024-01-25T12:51:43;99557.94;;;-0.67;100.00
59650;BME280;46162;57.568;25.814;2024-01-25T12:54:13;99558.88;;;-0.68;100.00
59650;BME280;46162;57.568;25.814;2024-01-25T12:56:42;99571.53;;;-0.71;100.00
59650;BME280;46162;57.568;25.814;2024-01-25T12:59:12;99577.22;;;-0.65;100.00